New Lisbon, Wisconsin
Current Conditions -  °F | °C
As of 11:58 PM on Wednesday 22 Oct 2014 (Local Time) from KVOK Reporting Station
Clear Clear  
Wind Chill: 39°   Ceiling: Unl
Heat Index: 39°   Visibility: 10mi
Dew Point: 38°   Wind: 1mph
Humidity: 95%   Direction: 110°ESE
Pressure: 30.17"   Gusts: NA
Location:  43.88°N, 90.17°W
Report Text: KVOK 230458Z AUTO 11001KT 10SM CLR 04/03 A3017 RMK AO2 SLP225 T00410033
Loading
Personal Weather Stations






























Interactive Weather Map
Tropical Storm Tracking
New forecast layout! Learn more

10-Day Weather Forecast

Advertisements
Track Severe Weather on mobile